Private Wetterstation Sandau
Wetterdaten: Freitag, 04.05.2012
Datum Zeit Temp. A. Feuchte A. Luftdruck Regen Wind Richtung Richtung Taupunkt Windchill
04.05.2012 00:01 16,7 C 74 % 1008,2 hPa 0,0 l/m 5,8 km/h (2 Bft) NW 315 12,0 C 16,7 C
04.05.2012 00:06 16,6 C 74 % 1008,0 hPa 0,0 l/m 7,6 km/h (2 Bft) W-NW 292 11,9 C 16,6 C
04.05.2012 00:11 16,6 C 74 % 1008,0 hPa 0,0 l/m 3,6 km/h (1 Bft) W 270 11,9 C 16,6 C
04.05.2012 00:16 16,6 C 74 % 1008,0 hPa 0,0 l/m 5,8 km/h (2 Bft) W 270 11,9 C 16,6 C
04.05.2012 00:21 16,6 C 74 % 1008,0 hPa 0,0 l/m 5,8 km/h (2 Bft) W 270 11,9 C 16,6 C
04.05.2012 00:26 16,5 C 74 % 1007,9 hPa 0,0 l/m 3,2 km/h (1 Bft) W 270 11,8 C 16,5 C
04.05.2012 00:31 16,5 C 74 % 1008,1 hPa 0,0 l/m 4,0 km/h (1 Bft) W 270 11,8 C 16,5 C
04.05.2012 00:36 16,4 C 74 % 1008,0 hPa 0,0 l/m 7,2 km/h (2 Bft) W-NW 292 11,8 C 16,4 C
04.05.2012 00:41 16,4 C 74 % 1008,0 hPa 0,0 l/m 8,3 km/h (2 Bft) W-NW 292 11,8 C 16,4 C
04.05.2012 00:46 16,4 C 74 % 1008,0 hPa 0,0 l/m 6,1 km/h (2 Bft) NW 315 11,8 C 16,4 C
04.05.2012 00:51 16,3 C 74 % 1007,9 hPa 0,0 l/m 5,8 km/h (2 Bft) W 270 11,7 C 16,3 C
04.05.2012 00:56 16,3 C 74 % 1008,0 hPa 0,0 l/m 5,8 km/h (2 Bft) W 270 11,7 C 16,3 C
04.05.2012 01:01 16,3 C 74 % 1008,0 hPa 0,0 l/m 1,8 km/h (1 Bft) W-SW 247 11,7 C 16,3 C
04.05.2012 01:06 16,2 C 74 % 1008,0 hPa 0,0 l/m 5,0 km/h (1 Bft) W-SW 247 11,6 C 16,2 C
04.05.2012 01:11 16,2 C 74 % 1008,1 hPa 0,0 l/m 2,5 km/h (1 Bft) W-NW 292 11,6 C 16,2 C
04.05.2012 01:16 16,1 C 74 % 1008,0 hPa 0,0 l/m 1,4 km/h (1 Bft) W-SW 247 11,5 C 16,1 C
04.05.2012 01:21 16,1 C 75 % 1007,9 hPa 0,0 l/m 2,2 km/h (1 Bft) W 270 11,7 C 16,1 C
04.05.2012 01:26 16,2 C 75 % 1007,9 hPa 0,0 l/m 0,0 km/h (0 Bft) W 270 11,8 C 16,2 C
04.05.2012 01:31 16,2 C 75 % 1007,8 hPa 0,0 l/m 5,8 km/h (2 Bft) W 270 11,8 C 16,2 C
04.05.2012 01:36 16,2 C 75 % 1007,9 hPa 0,0 l/m 1,1 km/h (1 Bft) W-SW 247 11,8 C 16,2 C
04.05.2012 01:41 16,2 C 75 % 1007,7 hPa 0,0 l/m 2,2 km/h (1 Bft) W-NW 292 11,8 C 16,2 C
04.05.2012 01:46 16,1 C 75 % 1007,7 hPa 0,0 l/m 0,0 km/h (0 Bft) W-NW 292 11,7 C 16,1 C
04.05.2012 01:51 16,1 C 75 % 1007,7 hPa 0,0 l/m 3,2 km/h (1 Bft) W 270 11,7 C 16,1 C
04.05.2012 01:56 16,1 C 76 % 1007,8 hPa 0,0 l/m 6,1 km/h (2 Bft) W 270 11,9 C 16,1 C
04.05.2012 02:01 16,0 C 76 % 1007,8 hPa 0,0 l/m 5,0 km/h (1 Bft) W-SW 247 11,8 C 16,0 C
04.05.2012 02:06 15,9 C 76 % 1007,6 hPa 0,0 l/m 0,0 km/h (0 Bft) W-SW 247 11,7 C 15,9 C
04.05.2012 02:11 15,9 C 76 % 1007,7 hPa 0,0 l/m 7,2 km/h (2 Bft) W-SW 247 11,7 C 15,9 C
04.05.2012 02:16 15,9 C 76 % 1007,7 hPa 0,0 l/m 3,6 km/h (1 Bft) W-SW 247 11,7 C 15,9 C
04.05.2012 02:21 15,9 C 76 % 1007,7 hPa 0,0 l/m 4,0 km/h (1 Bft) W-SW 247 11,7 C 15,9 C
04.05.2012 02:26 15,9 C 76 % 1007,7 hPa 0,0 l/m 5,4 km/h (1 Bft) W-SW 247 11,7 C 15,9 C
04.05.2012 02:31 15,8 C 76 % 1007,6 hPa 0,0 l/m 3,6 km/h (1 Bft) W 270 11,6 C 15,8 C
04.05.2012 02:36 15,8 C 76 % 1007,6 hPa 0,0 l/m 0,0 km/h (0 Bft) W-SW 247 11,6 C 15,8 C
04.05.2012 02:41 15,8 C 76 % 1007,5 hPa 0,0 l/m 1,1 km/h (1 Bft) W-SW 247 11,6 C 15,8 C
04.05.2012 02:46 15,7 C 76 % 1007,4 hPa 0,0 l/m 3,6 km/h (1 Bft) W 270 11,5 C 15,7 C
04.05.2012 02:51 15,6 C 76 % 1007,3 hPa 0,0 l/m 2,2 km/h (1 Bft) W 270 11,4 C 15,6 C
04.05.2012 02:56 15,6 C 77 % 1007,3 hPa 0,0 l/m 3,2 km/h (1 Bft) W 270 11,6 C 15,6 C
04.05.2012 03:01 15,6 C 77 % 1007,4 hPa 0,0 l/m 0,0 km/h (0 Bft) W-SW 247 11,6 C 15,6 C
04.05.2012 03:06 15,5 C 77 % 1007,3 hPa 0,0 l/m 3,6 km/h (1 Bft) W 270 11,5 C 15,5 C
04.05.2012 03:11 15,5 C 77 % 1007,3 hPa 0,0 l/m 0,0 km/h (0 Bft) W-SW 247 11,5 C 15,5 C
04.05.2012 03:16 15,4 C 77 % 1007,3 hPa 0,0 l/m 0,0 km/h (0 Bft) W 270 11,4 C 15,4 C
04.05.2012 03:21 15,4 C 77 % 1007,3 hPa 0,0 l/m 0,0 km/h (0 Bft) W 270 11,4 C 15,4 C
04.05.2012 03:26 15,4 C 77 % 1007,3 hPa 0,0 l/m 6,1 km/h (2 Bft) W 270 11,4 C 15,4 C
04.05.2012 03:31 15,4 C 77 % 1007,1 hPa 0,0 l/m 2,2 km/h (1 Bft) W-SW 247 11,4 C 15,4 C
04.05.2012 03:36 15,4 C 77 % 1007,1 hPa 0,0 l/m 2,2 km/h (1 Bft) W 270 11,4 C 15,4 C
04.05.2012 03:41 15,4 C 77 % 1007,0 hPa 0,0 l/m 0,0 km/h (0 Bft) W-SW 247 11,4 C 15,4 C
04.05.2012 03:46 15,4 C 77 % 1007,0 hPa 0,0 l/m 5,8 km/h (2 Bft) W-SW 247 11,4 C 15,4 C
04.05.2012 03:51 15,4 C 77 % 1007,0 hPa 0,0 l/m 2,2 km/h (1 Bft) SW 225 11,4 C 15,4 C
04.05.2012 03:56 15,3 C 77 % 1007,0 hPa 0,0 l/m 2,5 km/h (1 Bft) W-SW 247 11,3 C 15,3 C
04.05.2012 04:01 15,3 C 77 % 1007,0 hPa 0,0 l/m 2,2 km/h (1 Bft) SW 225 11,3 C 15,3 C
04.05.2012 04:06 15,3 C 77 % 1006,9 hPa 0,0 l/m 5,8 km/h (2 Bft) W-SW 247 11,3 C 15,3 C
04.05.2012 04:11 15,2 C 77 % 1007,0 hPa 0,0 l/m 2,5 km/h (1 Bft) W 270 11,2 C 15,2 C
04.05.2012 04:16 15,0 C 77 % 1006,9 hPa 0,0 l/m 6,5 km/h (2 Bft) W-SW 247 11,0 C 15,0 C
04.05.2012 04:21 14,9 C 77 % 1006,9 hPa 0,0 l/m 4,0 km/h (1 Bft) NW 315 10,9 C 14,9 C
04.05.2012 04:26 14,9 C 77 % 1006,9 hPa 0,0 l/m 3,6 km/h (1 Bft) W 270 10,9 C 14,9 C
04.05.2012 04:31 14,9 C 77 % 1006,9 hPa 0,0 l/m 4,7 km/h (1 Bft) W-SW 247 10,9 C 14,9 C
04.05.2012 04:36 14,9 C 77 % 1006,9 hPa 0,0 l/m 5,0 km/h (1 Bft) W 270 10,9 C 14,9 C
04.05.2012 04:41 14,8 C 77 % 1007,0 hPa 0,0 l/m 4,0 km/h (1 Bft) W-SW 247 10,8 C 14,8 C
04.05.2012 04:46 14,6 C 77 % 1006,9 hPa 0,0 l/m 9,4 km/h (2 Bft) W 270 10,6 C 14,6 C
04.05.2012 04:51 14,5 C 77 % 1006,9 hPa 0,0 l/m 3,6 km/h (1 Bft) W 270 10,5 C 14,5 C
04.05.2012 04:56 14,4 C 77 % 1006,9 hPa 0,0 l/m 6,1 km/h (2 Bft) W 270 10,4 C 14,4 C
04.05.2012 05:01 14,3 C 77 % 1006,9 hPa 0,0 l/m 10,1 km/h (2 Bft) SW 225 10,3 C 14,3 C
04.05.2012 05:06 14,3 C 77 % 1006,9 hPa 0,0 l/m 9,4 km/h (2 Bft) SW 225 10,3 C 14,3 C
04.05.2012 05:11 14,1 C 77 % 1006,9 hPa 0,0 l/m 4,3 km/h (1 Bft) W-SW 247 10,1 C 14,1 C
04.05.2012 05:16 14,1 C 77 % 1006,9 hPa 0,0 l/m 3,2 km/h (1 Bft) W 270 10,1 C 14,1 C
04.05.2012 05:21 13,9 C 77 % 1007,0 hPa 0,0 l/m 4,0 km/h (1 Bft) W-SW 247 9,9 C 13,9 C
04.05.2012 05:26 13,9 C 77 % 1006,9 hPa 0,0 l/m 7,6 km/h (2 Bft) W-SW 247 9,9 C 13,9 C
04.05.2012 05:31 13,8 C 77 % 1006,8 hPa 0,0 l/m 7,6 km/h (2 Bft) W 270 9,8 C 13,8 C
04.05.2012 05:36 13,8 C 77 % 1006,9 hPa 0,0 l/m 5,8 km/h (2 Bft) W-SW 247 9,8 C 13,8 C
04.05.2012 05:41 13,6 C 78 % 1006,9 hPa 0,0 l/m 5,0 km/h (1 Bft) W-SW 247 9,8 C 13,6 C
04.05.2012 05:46 13,6 C 78 % 1006,9 hPa 0,0 l/m 3,6 km/h (1 Bft) W-SW 247 9,8 C 13,6 C
04.05.2012 05:51 13,5 C 78 % 1006,8 hPa 0,0 l/m 3,2 km/h (1 Bft) W-SW 247 9,7 C 13,5 C
04.05.2012 05:56 13,5 C 78 % 1006,8 hPa 0,0 l/m 3,6 km/h (1 Bft) W-SW 247 9,7 C 13,5 C
04.05.2012 06:01 13,4 C 78 % 1006,7 hPa 0,0 l/m 0,0 km/h (0 Bft) W-SW 247 9,6 C 13,4 C
04.05.2012 06:06 13,4 C 78 % 1006,7 hPa 0,0 l/m 4,0 km/h (1 Bft) W-SW 247 9,6 C 13,4 C
04.05.2012 06:11 13,4 C 78 % 1006,5 hPa 0,0 l/m 4,3 km/h (1 Bft) W-SW 247 9,6 C 13,4 C
04.05.2012 06:16 13,3 C 78 % 1006,6 hPa 0,0 l/m 5,0 km/h (1 Bft) W 270 9,5 C 13,3 C
04.05.2012 06:21 13,3 C 78 % 1006,6 hPa 0,0 l/m 2,2 km/h (1 Bft) SW 225 9,5 C 13,3 C
04.05.2012 06:26 13,2 C 78 % 1006,6 hPa 0,0 l/m 2,2 km/h (1 Bft) W 270 9,4 C 13,2 C
04.05.2012 06:31 13,2 C 78 % 1006,7 hPa 0,0 l/m 2,9 km/h (1 Bft) SW 225 9,4 C 13,2 C
04.05.2012 06:36 13,3 C 78 % 1006,8 hPa 0,0 l/m 2,2 km/h (1 Bft) W 270 9,5 C 13,3 C
04.05.2012 06:41 13,3 C 78 % 1006,6 hPa 0,0 l/m 0,0 km/h (0 Bft) SW 225 9,5 C 13,3 C
04.05.2012 06:46 13,3 C 78 % 1006,7 hPa 0,0 l/m 2,5 km/h (1 Bft) SW 225 9,5 C 13,3 C
04.05.2012 06:51 13,4 C 78 % 1006,6 hPa 0,0 l/m 0,0 km/h (0 Bft) SW 225 9,6 C 13,4 C
04.05.2012 06:56 13,4 C 78 % 1006,7 hPa 0,0 l/m 2,2 km/h (1 Bft) W-SW 247 9,6 C 13,4 C
04.05.2012 07:01 13,4 C 78 % 1006,7 hPa 0,0 l/m 3,2 km/h (1 Bft) W-SW 247 9,6 C 13,4 C
04.05.2012 07:06 13,4 C 78 % 1006,6 hPa 0,0 l/m 2,5 km/h (1 Bft) SW 225 9,6 C 13,4 C
04.05.2012 07:11 13,4 C 77 % 1006,7 hPa 0,0 l/m 4,0 km/h (1 Bft) S 180 9,5 C 13,4 C
04.05.2012 07:16 13,4 C 77 % 1006,6 hPa 0,0 l/m 4,3 km/h (1 Bft) S 180 9,5 C 13,4 C
04.05.2012 07:21 13,4 C 77 % 1006,6 hPa 0,0 l/m 2,5 km/h (1 Bft) S-SW 202 9,5 C 13,4 C
04.05.2012 07:26 13,5 C 77 % 1006,6 hPa 0,0 l/m 2,5 km/h (1 Bft) SW 225 9,5 C 13,5 C
04.05.2012 07:31 13,5 C 77 % 1006,6 hPa 0,0 l/m 0,0 km/h (0 Bft) SW 225 9,5 C 13,5 C
04.05.2012 07:36 13,6 C 77 % 1006,4 hPa 0,0 l/m 0,0 km/h (0 Bft) S 180 9,6 C 13,6 C
04.05.2012 07:41 13,6 C 77 % 1006,4 hPa 0,0 l/m 2,5 km/h (1 Bft) S 180 9,6 C 13,6 C
04.05.2012 07:46 13,8 C 77 % 1006,3 hPa 0,0 l/m 4,0 km/h (1 Bft) SW 225 9,8 C 13,8 C
04.05.2012 07:51 13,9 C 77 % 1006,3 hPa 0,0 l/m 4,3 km/h (1 Bft) W-SW 247 9,9 C 13,9 C
04.05.2012 07:56 14,2 C 76 % 1006,4 hPa 0,0 l/m 5,8 km/h (2 Bft) S 180 10,0 C 14,2 C
04.05.2012 08:01 14,3 C 76 % 1006,4 hPa 0,0 l/m 7,2 km/h (2 Bft) SW 225 10,1 C 14,3 C
04.05.2012 08:06 14,4 C 76 % 1006,4 hPa 0,0 l/m 4,3 km/h (1 Bft) S-SW 202 10,2 C 14,4 C
04.05.2012 08:11 14,6 C 75 % 1006,4 hPa 0,0 l/m 5,8 km/h (2 Bft) SW 225 10,2 C 14,6 C
04.05.2012 08:16 14,7 C 75 % 1006,3 hPa 0,0 l/m 6,5 km/h (2 Bft) S 180 10,3 C 14,7 C
04.05.2012 08:21 14,9 C 75 % 1006,3 hPa 0,0 l/m 4,0 km/h (1 Bft) SW 225 10,5 C 14,9 C
04.05.2012 08:26 14,9 C 75 % 1006,3 hPa 0,0 l/m 3,6 km/h (1 Bft) W-SW 247 10,5 C 14,9 C
04.05.2012 08:31 15,3 C 75 % 1006,2 hPa 0,0 l/m 2,5 km/h (1 Bft) W-SW 247 10,9 C 15,3 C
04.05.2012 08:36 15,5 C 74 % 1006,2 hPa 0,0 l/m 5,8 km/h (2 Bft) W-SW 247 10,9 C 15,5 C
04.05.2012 08:41 15,8 C 73 % 1006,2 hPa 0,0 l/m 4,7 km/h (1 Bft) SW 225 11,0 C 15,8 C
04.05.2012 08:46 15,9 C 72 % 1006,2 hPa 0,0 l/m 11,9 km/h (2 Bft) W 270 10,9 C 15,9 C
04.05.2012 08:51 16,1 C 72 % 1006,1 hPa 0,0 l/m 3,2 km/h (1 Bft) W-NW 292 11,0 C 16,1 C
04.05.2012 08:56 16,4 C 71 % 1006,1 hPa 0,0 l/m 10,4 km/h (2 Bft) W-SW 247 11,1 C 16,4 C
04.05.2012 09:01 16,4 C 71 % 1006,0 hPa 0,0 l/m 4,0 km/h (1 Bft) SW 225 11,1 C 16,4 C
04.05.2012 09:06 16,4 C 70 % 1006,1 hPa 0,0 l/m 4,7 km/h (1 Bft) S-SW 202 10,9 C 16,4 C
04.05.2012 09:11 16,4 C 70 % 1006,2 hPa 0,0 l/m 10,1 km/h (2 Bft) W-SW 247 10,9 C 16,4 C
04.05.2012 09:16 16,3 C 69 % 1006,0 hPa 0,0 l/m 8,3 km/h (2 Bft) S-SW 202 10,6 C 16,3 C
04.05.2012 09:21 16,2 C 69 % 1006,1 hPa 0,0 l/m 4,7 km/h (1 Bft) S 180 10,5 C 16,2 C
04.05.2012 09:26 16,2 C 70 % 1006,0 hPa 0,0 l/m 4,3 km/h (1 Bft) W-NW 292 10,7 C 16,2 C
04.05.2012 09:31 16,1 C 70 % 1006,1 hPa 0,0 l/m 7,6 km/h (2 Bft) SW 225 10,6 C 16,1 C
04.05.2012 09:36 16,1 C 70 % 1005,9 hPa 0,0 l/m 8,6 km/h (2 Bft) S-SW 202 10,6 C 16,1 C
04.05.2012 09:41 15,9 C 69 % 1005,9 hPa 0,0 l/m 4,0 km/h (1 Bft) SW 225 10,2 C 15,9 C
04.05.2012 09:46 15,9 C 70 % 1005,9 hPa 0,0 l/m 7,6 km/h (2 Bft) W-SW 247 10,4 C 15,9 C
04.05.2012 09:51 16,2 C 70 % 1006,0 hPa 0,0 l/m 13,7 km/h (3 Bft) W-SW 247 10,7 C 16,2 C
04.05.2012 09:56 16,4 C 68 % 1005,9 hPa 0,0 l/m 5,0 km/h (1 Bft) W 270 10,5 C 16,4 C
04.05.2012 10:01 16,6 C 67 % 1005,9 hPa 0,0 l/m 10,8 km/h (2 Bft) SW 225 10,4 C 16,6 C
04.05.2012 10:06 16,6 C 67 % 1005,9 hPa 0,0 l/m 10,4 km/h (2 Bft) W 270 10,4 C 16,6 C
04.05.2012 10:11 16,8 C 66 % 1005,8 hPa 0,0 l/m 3,2 km/h (1 Bft) W 270 10,4 C 16,8 C
04.05.2012 10:16 16,9 C 66 % 1005,9 hPa 0,0 l/m 4,7 km/h (1 Bft) W-SW 247 10,5 C 16,9 C
04.05.2012 10:21 17,0 C 65 % 1005,8 hPa 0,0 l/m 5,0 km/h (1 Bft) W-SW 247 10,4 C 17,0 C
04.05.2012 10:26 17,2 C 64 % 1005,7 hPa 0,0 l/m 8,3 km/h (2 Bft) S-SW 202 10,3 C 17,2 C
04.05.2012 10:31 17,2 C 64 % 1005,8 hPa 0,0 l/m 9,7 km/h (2 Bft) S-SW 202 10,3 C 17,2 C
04.05.2012 10:36 17,3 C 64 % 1005,9 hPa 0,0 l/m 14,0 km/h (3 Bft) W-SW 247 10,4 C 17,3 C
04.05.2012 10:41 17,5 C 63 % 1005,8 hPa 0,0 l/m 4,0 km/h (1 Bft) SW 225 10,4 C 17,5 C
04.05.2012 10:46 17,8 C 62 % 1005,7 hPa 0,0 l/m 5,4 km/h (1 Bft) W 270 10,4 C 17,8 C
04.05.2012 10:51 18,0 C 62 % 1005,7 hPa 0,0 l/m 1,4 km/h (1 Bft) N-NW 337 10,6 C 18,0 C
04.05.2012 10:56 18,1 C 61 % 1005,6 hPa 0,0 l/m 3,6 km/h (1 Bft) W-SW 247 10,5 C 18,1 C
04.05.2012 11:01 18,1 C 62 % 1005,5 hPa 0,0 l/m 18,0 km/h (3 Bft) SW 225 10,7 C 18,1 C
04.05.2012 11:06 18,3 C 61 % 1005,5 hPa 0,0 l/m 13,0 km/h (3 Bft) W-SW 247 10,6 C 18,3 C
04.05.2012 11:11 18,3 C 60 % 1005,5 hPa 0,0 l/m 6,1 km/h (2 Bft) W 270 10,4 C 18,3 C
04.05.2012 11:16 18,2 C 60 % 1005,3 hPa 0,0 l/m 14,0 km/h (3 Bft) W-SW 247 10,3 C 18,2 C
04.05.2012 11:21 18,3 C 60 % 1005,3 hPa 0,0 l/m 10,8 km/h (2 Bft) S 180 10,4 C 18,3 C
04.05.2012 11:26 18,4 C 59 % 1005,2 hPa 0,0 l/m 3,2 km/h (1 Bft) W-SW 247 10,2 C 18,4 C
04.05.2012 11:31 18,4 C 59 % 1005,3 hPa 0,0 l/m 7,9 km/h (2 Bft) W 270 10,2 C 18,4 C
04.05.2012 11:36 18,4 C 59 % 1005,1 hPa 0,0 l/m 9,4 km/h (2 Bft) W 270 10,2 C 18,4 C
04.05.2012 11:41 18,5 C 58 % 1005,2 hPa 0,0 l/m 11,2 km/h (2 Bft) S-SO 157 10,1 C 18,5 C
04.05.2012 11:46 18,7 C 57 % 1005,1 hPa 0,0 l/m 14,4 km/h (3 Bft) S 180 10,0 C 18,7 C
04.05.2012 11:51 18,9 C 56 % 1005,1 hPa 0,0 l/m 10,8 km/h (2 Bft) S-SW 202 9,9 C 18,9 C
04.05.2012 11:56 18,9 C 56 % 1005,2 hPa 0,0 l/m 7,2 km/h (2 Bft) W 270 9,9 C 18,9 C
04.05.2012 12:01 18,9 C 55 % 1005,2 hPa 0,0 l/m 24,5 km/h (4 Bft) W 270 9,7 C 18,9 C
04.05.2012 12:06 18,9 C 54 % 1005,0 hPa 0,0 l/m 17,3 km/h (3 Bft) W 270 9,4 C 18,9 C
04.05.2012 12:11 18,8 C 54 % 1005,1 hPa 0,0 l/m 10,1 km/h (2 Bft) S-SW 202 9,3 C 18,8 C
04.05.2012 12:16 18,9 C 54 % 1004,9 hPa 0,0 l/m 10,1 km/h (2 Bft) W-SW 247 9,4 C 18,9 C
04.05.2012 12:21 19,0 C 53 % 1004,9 hPa 0,0 l/m 15,8 km/h (3 Bft) W-SW 247 9,2 C 19,0 C
04.05.2012 12:26 19,0 C 53 % 1004,8 hPa 0,0 l/m 9,7 km/h (2 Bft) W 270 9,2 C 19,0 C
04.05.2012 12:31 19,0 C 53 % 1004,8 hPa 0,0 l/m 5,0 km/h (1 Bft) W 270 9,2 C 19,0 C
04.05.2012 12:36 19,1 C 53 % 1004,8 hPa 0,0 l/m 11,2 km/h (2 Bft) W 270 9,3 C 19,1 C
04.05.2012 12:41 19,4 C 52 % 1004,7 hPa 0,0 l/m 19,1 km/h (3 Bft) S-SW 202 9,3 C 19,4 C
04.05.2012 12:46 19,3 C 52 % 1004,8 hPa 0,0 l/m 8,6 km/h (2 Bft) SO 135 9,2 C 19,3 C
04.05.2012 12:51 19,1 C 51 % 1004,9 hPa 0,0 l/m 23,8 km/h (4 Bft) W 270 8,7 C 19,1 C
04.05.2012 12:56 18,9 C 51 % 1004,7 hPa 0,0 l/m 9,7 km/h (2 Bft) S-SW 202 8,5 C 18,9 C
04.05.2012 13:01 18,8 C 51 % 1004,8 hPa 0,0 l/m 8,3 km/h (2 Bft) S-SW 202 8,4 C 18,8 C
04.05.2012 13:06 18,8 C 52 % 1004,7 hPa 0,0 l/m 15,5 km/h (3 Bft) W-SW 247 8,7 C 18,8 C
04.05.2012 13:11 18,8 C 52 % 1004,7 hPa 0,0 l/m 7,9 km/h (2 Bft) S 180 8,7 C 18,8 C
04.05.2012 13:16 18,8 C 52 % 1004,8 hPa 0,0 l/m 13,0 km/h (3 Bft) W 270 8,7 C 18,8 C
04.05.2012 13:21 18,6 C 52 % 1004,8 hPa 0,0 l/m 8,6 km/h (2 Bft) SW 225 8,5 C 18,6 C
04.05.2012 13:26 18,5 C 52 % 1004,9 hPa 0,0 l/m 13,3 km/h (3 Bft) W-SW 247 8,5 C 18,5 C
04.05.2012 13:31 18,4 C 52 % 1004,8 hPa 0,0 l/m 13,0 km/h (3 Bft) W-SW 247 8,4 C 18,4 C
04.05.2012 13:36 18,4 C 53 % 1004,8 hPa 0,0 l/m 19,8 km/h (3 Bft) W 270 8,6 C 18,4 C
04.05.2012 13:41 18,4 C 52 % 1004,7 hPa 0,0 l/m 16,6 km/h (3 Bft) W 270 8,4 C 18,4 C
04.05.2012 13:46 18,4 C 53 % 1004,8 hPa 0,0 l/m 18,0 km/h (3 Bft) S 180 8,6 C 18,4 C
04.05.2012 13:51 18,4 C 53 % 1004,7 hPa 0,0 l/m 11,5 km/h (2 Bft) SW 225 8,6 C 18,4 C
04.05.2012 13:56 18,5 C 53 % 1004,7 hPa 0,0 l/m 16,6 km/h (3 Bft) W-SW 247 8,7 C 18,5 C
04.05.2012 14:01 18,9 C 52 % 1004,6 hPa 0,0 l/m 17,3 km/h (3 Bft) W-SW 247 8,8 C 18,9 C
04.05.2012 14:06 19,1 C 51 % 1004,6 hPa 0,0 l/m 10,1 km/h (2 Bft) SW 225 8,7 C 19,1 C
04.05.2012 14:11 19,2 C 51 % 1004,5 hPa 0,0 l/m 8,3 km/h (2 Bft) S 180 8,8 C 19,2 C
04.05.2012 14:16 19,4 C 50 % 1004,4 hPa 0,0 l/m 21,2 km/h (4 Bft) W-SW 247 8,7 C 19,4 C
04.05.2012 14:21 19,6 C 49 % 1004,4 hPa 0,0 l/m 10,4 km/h (2 Bft) W 270 8,6 C 19,6 C
04.05.2012 14:26 19,6 C 48 % 1004,6 hPa 0,0 l/m 9,7 km/h (2 Bft) NW 315 8,3 C 19,6 C
04.05.2012 14:31 19,6 C 48 % 1004,5 hPa 0,0 l/m 14,8 km/h (3 Bft) N-NW 337 8,3 C 19,6 C
04.05.2012 14:36 19,8 C 47 % 1004,3 hPa 0,0 l/m 26,3 km/h (4 Bft) W-SW 247 8,2 C 19,8 C
04.05.2012 14:41 20,1 C 47 % 1004,2 hPa 0,0 l/m 13,3 km/h (3 Bft) W-SW 247 8,4 C 20,1 C
04.05.2012 14:46 20,4 C 46 % 1004,2 hPa 0,0 l/m 15,5 km/h (3 Bft) W-SW 247 8,4 C 20,4 C
04.05.2012 14:51 20,5 C 46 % 1004,2 hPa 0,0 l/m 13,3 km/h (3 Bft) SW 225 8,5 C 20,5 C
04.05.2012 14:56 20,7 C 45 % 1004,0 hPa 0,0 l/m 9,0 km/h (2 Bft) W 270 8,3 C 20,7 C
04.05.2012 15:01 20,8 C 45 % 1004,1 hPa 0,0 l/m 16,9 km/h (3 Bft) W-SW 247 8,4 C 20,8 C
04.05.2012 15:06 20,9 C 44 % 1004,0 hPa 0,0 l/m 22,0 km/h (4 Bft) W 270 8,2 C 20,9 C
04.05.2012 15:11 20,9 C 44 % 1004,0 hPa 0,0 l/m 12,2 km/h (2 Bft) W 270 8,2 C 20,9 C
04.05.2012 15:16 20,9 C 43 % 1003,8 hPa 0,0 l/m 15,8 km/h (3 Bft) W-SW 247 7,8 C 20,9 C
04.05.2012 15:21 20,9 C 44 % 1004,0 hPa 0,0 l/m 20,2 km/h (4 Bft) W-SW 247 8,2 C 20,9 C
04.05.2012 15:26 20,6 C 44 % 1003,9 hPa 0,0 l/m 11,9 km/h (2 Bft) W-SW 247 7,9 C 20,6 C
04.05.2012 15:31 20,4 C 44 % 1003,9 hPa 0,0 l/m 7,6 km/h (2 Bft) W-SW 247 7,7 C 20,4 C
04.05.2012 15:36 20,4 C 44 % 1003,8 hPa 0,0 l/m 9,7 km/h (2 Bft) W-SW 247 7,7 C 20,4 C
04.05.2012 15:41 20,2 C 44 % 1003,8 hPa 0,0 l/m 18,7 km/h (3 Bft) W-SW 247 7,6 C 20,2 C
04.05.2012 15:46 20,2 C 45 % 1003,7 hPa 0,0 l/m 14,8 km/h (3 Bft) SW 225 7,9 C 20,2 C
04.05.2012 15:51 20,4 C 44 % 1003,6 hPa 0,0 l/m 19,1 km/h (3 Bft) W-SW 247 7,7 C 20,4 C
04.05.2012 15:56 20,6 C 44 % 1003,4 hPa 0,0 l/m 4,7 km/h (1 Bft) W-SW 247 7,9 C 20,6 C
04.05.2012 16:01 20,6 C 43 % 1003,3 hPa 0,0 l/m 11,9 km/h (2 Bft) W-SW 247 7,6 C 20,6 C
04.05.2012 16:06 20,5 C 44 % 1003,3 hPa 0,0 l/m 9,7 km/h (2 Bft) W-NW 292 7,8 C 20,5 C
04.05.2012 16:11 20,6 C 44 % 1003,1 hPa 0,0 l/m 21,6 km/h (4 Bft) SW 225 7,9 C 20,6 C
04.05.2012 16:16 20,9 C 44 % 1003,1 hPa 0,0 l/m 11,9 km/h (2 Bft) S-SW 202 8,2 C 20,9 C
04.05.2012 16:21 21,1 C 43 % 1003,3 hPa 0,0 l/m 5,0 km/h (1 Bft) W-SW 247 8,0 C 21,1 C
04.05.2012 16:26 21,2 C 43 % 1003,2 hPa 0,0 l/m 11,2 km/h (2 Bft) W 270 8,1 C 21,2 C
04.05.2012 16:31 21,2 C 43 % 1003,2 hPa 0,0 l/m 23,4 km/h (4 Bft) W-SW 247 8,1 C 21,2 C
04.05.2012 16:36 21,1 C 42 % 1003,1 hPa 0,0 l/m 6,5 km/h (2 Bft) W 270 7,7 C 21,1 C
04.05.2012 16:41 21,1 C 43 % 1003,0 hPa 0,0 l/m 16,6 km/h (3 Bft) W-SW 247 8,0 C 21,1 C
04.05.2012 16:46 21,1 C 43 % 1002,9 hPa 0,0 l/m 13,3 km/h (3 Bft) W 270 8,0 C 21,1 C
04.05.2012 16:51 20,9 C 43 % 1003,0 hPa 0,0 l/m 16,6 km/h (3 Bft) W 270 7,8 C 20,9 C
04.05.2012 16:56 20,6 C 44 % 1002,9 hPa 0,0 l/m 13,0 km/h (3 Bft) W-SW 247 7,9 C 20,6 C
04.05.2012 17:01 20,5 C 44 % 1002,8 hPa 0,0 l/m 10,4 km/h (2 Bft) W-SW 247 7,8 C 20,5 C
04.05.2012 17:06 20,9 C 45 % 1002,7 hPa 0,0 l/m 8,3 km/h (2 Bft) S-SW 202 8,5 C 20,9 C
04.05.2012 17:11 21,2 C 44 % 1002,7 hPa 0,0 l/m 12,6 km/h (3 Bft) S-SW 202 8,5 C 21,2 C
04.05.2012 17:16 21,4 C 43 % 1002,6 hPa 0,0 l/m 14,4 km/h (3 Bft) W 270 8,3 C 21,4 C
04.05.2012 17:21 21,4 C 43 % 1002,6 hPa 0,0 l/m 13,0 km/h (3 Bft) W 270 8,3 C 21,4 C
04.05.2012 17:26 21,4 C 43 % 1002,5 hPa 0,0 l/m 15,5 km/h (3 Bft) S-SW 202 8,3 C 21,4 C
04.05.2012 17:31 21,4 C 43 % 1002,5 hPa 0,0 l/m 11,5 km/h (2 Bft) W-SW 247 8,3 C 21,4 C
04.05.2012 17:36 21,3 C 43 % 1002,4 hPa 0,0 l/m 13,0 km/h (3 Bft) W-NW 292 8,2 C 21,3 C
04.05.2012 17:41 21,3 C 44 % 1002,6 hPa 0,0 l/m 11,2 km/h (2 Bft) W-NW 292 8,5 C 21,3 C
04.05.2012 17:46 21,2 C 44 % 1002,4 hPa 0,0 l/m 10,1 km/h (2 Bft) SW 225 8,5 C 21,2 C
04.05.2012 17:51 21,0 C 44 % 1002,5 hPa 0,0 l/m 6,1 km/h (2 Bft) W-SW 247 8,3 C 21,0 C
04.05.2012 17:56 21,0 C 45 % 1002,4 hPa 0,0 l/m 3,6 km/h (1 Bft) W 270 8,6 C 21,0 C
04.05.2012 18:01 21,1 C 45 % 1002,2 hPa 0,0 l/m 12,2 km/h (2 Bft) SW 225 8,7 C 21,1 C
04.05.2012 18:06 21,3 C 44 % 1002,1 hPa 0,0 l/m 6,8 km/h (2 Bft) W 270 8,5 C 21,3 C
04.05.2012 18:11 21,4 C 44 % 1002,2 hPa 0,0 l/m 8,3 km/h (2 Bft) W-SW 247 8,6 C 21,4 C
04.05.2012 18:16 21,4 C 44 % 1002,2 hPa 0,0 l/m 9,4 km/h (2 Bft) SW 225 8,6 C 21,4 C
04.05.2012 18:21 21,3 C 44 % 1002,0 hPa 0,0 l/m 4,0 km/h (1 Bft) SW 225 8,5 C 21,3 C
04.05.2012 18:26 21,1 C 44 % 1002,1 hPa 0,0 l/m 12,2 km/h (2 Bft) W 270 8,4 C 21,1 C
04.05.2012 18:31 20,9 C 44 % 1002,2 hPa 0,0 l/m 6,1 km/h (2 Bft) W 270 8,2 C 20,9 C
04.05.2012 18:36 20,7 C 44 % 1002,0 hPa 0,0 l/m 9,4 km/h (2 Bft) S 180 8,0 C 20,7 C
04.05.2012 18:41 20,6 C 44 % 1001,9 hPa 0,0 l/m 2,9 km/h (1 Bft) W 270 7,9 C 20,6 C
04.05.2012 18:46 20,6 C 45 % 1001,9 hPa 0,0 l/m 4,7 km/h (1 Bft) S-SW 202 8,2 C 20,6 C
04.05.2012 18:51 20,5 C 45 % 1001,9 hPa 0,0 l/m 7,9 km/h (2 Bft) W-SW 247 8,2 C 20,5 C
04.05.2012 18:56 20,4 C 45 % 1001,9 hPa 0,0 l/m 7,9 km/h (2 Bft) W-SW 247 8,1 C 20,4 C
04.05.2012 19:01 20,3 C 45 % 1001,6 hPa 0,0 l/m 2,2 km/h (1 Bft) W 270 8,0 C 20,3 C
04.05.2012 19:06 20,3 C 46 % 1001,8 hPa 0,0 l/m 4,3 km/h (1 Bft) SW 225 8,3 C 20,3 C
04.05.2012 19:11 20,2 C 46 % 1001,6 hPa 0,0 l/m 5,0 km/h (1 Bft) SW 225 8,2 C 20,2 C
04.05.2012 19:16 20,1 C 46 % 1001,8 hPa 0,0 l/m 2,2 km/h (1 Bft) W-SW 247 8,1 C 20,1 C
04.05.2012 19:21 20,1 C 46 % 1001,6 hPa 0,0 l/m 2,9 km/h (1 Bft) S 180 8,1 C 20,1 C
04.05.2012 19:26 19,9 C 47 % 1001,7 hPa 0,0 l/m 3,6 km/h (1 Bft) S-SW 202 8,3 C 19,9 C
04.05.2012 19:31 19,9 C 47 % 1001,6 hPa 0,0 l/m 5,0 km/h (1 Bft) W 270 8,3 C 19,9 C
04.05.2012 19:36 19,8 C 48 % 1001,9 hPa 0,0 l/m 4,7 km/h (1 Bft) W 270 8,5 C 19,8 C
04.05.2012 19:41 19,6 C 49 % 1002,2 hPa 0,0 l/m 9,7 km/h (2 Bft) W-NW 292 8,6 C 19,6 C
04.05.2012 19:46 19,2 C 53 % 1002,2 hPa 0,0 l/m 13,0 km/h (3 Bft) W-NW 292 9,4 C 19,2 C
04.05.2012 19:51 18,8 C 54 % 1002,2 hPa 0,0 l/m 1,4 km/h (1 Bft) W-SW 247 9,3 C 18,8 C
04.05.2012 19:56 18,6 C 56 % 1002,1 hPa 0,0 l/m 1,4 km/h (1 Bft) W-NW 292 9,6 C 18,6 C
04.05.2012 20:01 18,4 C 57 % 1002,1 hPa 0,0 l/m 0,0 km/h (0 Bft) NW 315 9,7 C 18,4 C
04.05.2012 20:06 18,2 C 59 % 1001,9 hPa 0,0 l/m 0,0 km/h (0 Bft) N-NW 337 10,1 C 18,2 C
04.05.2012 20:11 17,9 C 59 % 1002,0 hPa 0,0 l/m 0,0 km/h (0 Bft) N-NW 337 9,8 C 17,9 C
04.05.2012 20:16 17,8 C 60 % 1002,1 hPa 0,0 l/m 0,0 km/h (0 Bft) N-NW 337 9,9 C 17,8 C
04.05.2012 20:21 17,6 C 61 % 1002,2 hPa 0,0 l/m 0,0 km/h (0 Bft) N-NW 337 10,0 C 17,6 C
04.05.2012 20:26 17,3 C 62 % 1002,0 hPa 0,0 l/m 1,8 km/h (1 Bft) NW 315 9,9 C 17,3 C
04.05.2012 20:31 17,2 C 63 % 1002,1 hPa 0,0 l/m 0,0 km/h (0 Bft) NW 315 10,1 C 17,2 C
04.05.2012 20:36 17,1 C 63 % 1002,0 hPa 0,0 l/m 0,0 km/h (0 Bft) NW 315 10,0 C 17,1 C
04.05.2012 20:41 16,9 C 63 % 1002,1 hPa 0,0 l/m 0,0 km/h (0 Bft) NW 315 9,8 C 16,9 C
04.05.2012 20:46 16,9 C 64 % 1002,0 hPa 0,0 l/m 0,0 km/h (0 Bft) NW 315 10,0 C 16,9 C
04.05.2012 20:51 16,9 C 65 % 1002,0 hPa 0,0 l/m 0,0 km/h (0 Bft) W-NW 292 10,3 C 16,9 C
04.05.2012 20:56 16,9 C 65 % 1002,1 hPa 0,0 l/m 1,8 km/h (1 Bft) W-NW 292 10,3 C 16,9 C
04.05.2012 21:01 16,9 C 65 % 1002,2 hPa 0,0 l/m 0,0 km/h (0 Bft) N-NW 337 10,3 C 16,9 C
04.05.2012 21:06 16,6 C 65 % 1002,1 hPa 0,0 l/m 0,0 km/h (0 Bft) NW 315 10,0 C 16,6 C
04.05.2012 21:11 16,4 C 66 % 1002,1 hPa 0,0 l/m 0,0 km/h (0 Bft) W-NW 292 10,0 C 16,4 C
04.05.2012 21:16 16,4 C 67 % 1002,2 hPa 0,0 l/m 0,0 km/h (0 Bft) W-NW 292 10,3 C 16,4 C
04.05.2012 21:21 16,3 C 67 % 1002,2 hPa 0,0 l/m 0,0 km/h (0 Bft) W-NW 292 10,2 C 16,3 C
04.05.2012 21:26 16,3 C 67 % 1002,2 hPa 0,0 l/m 1,4 km/h (1 Bft) W-SW 247 10,2 C 16,3 C
04.05.2012 21:31 16,2 C 68 % 1002,1 hPa 0,0 l/m 0,0 km/h (0 Bft) W-SW 247 10,3 C 16,2 C
04.05.2012 21:36 16,1 C 68 % 1002,2 hPa 0,0 l/m 1,1 km/h (1 Bft) W-SW 247 10,2 C 16,1 C
04.05.2012 21:41 16,0 C 68 % 1002,2 hPa 0,0 l/m 1,8 km/h (1 Bft) S-SO 157 10,1 C 16,0 C
04.05.2012 21:46 15,9 C 68 % 1002,1 hPa 0,0 l/m 0,0 km/h (0 Bft) SO 135 10,0 C 15,9 C
04.05.2012 21:51 15,8 C 69 % 1002,2 hPa 0,0 l/m 0,0 km/h (0 Bft) SO 135 10,1 C 15,8 C
04.05.2012 21:56 15,6 C 69 % 1002,2 hPa 0,0 l/m 0,0 km/h (0 Bft) SO 135 9,9 C 15,6 C
04.05.2012 22:01 15,5 C 70 % 1002,2 hPa 0,0 l/m 0,0 km/h (0 Bft) SO 135 10,1 C 15,5 C
04.05.2012 22:06 15,5 C 70 % 1002,1 hPa 0,0 l/m 0,0 km/h (0 Bft) SO 135 10,1 C 15,5 C
04.05.2012 22:11 15,5 C 70 % 1002,1 hPa 0,0 l/m 0,0 km/h (0 Bft) SO 135 10,1 C 15,5 C
04.05.2012 22:16 15,5 C 70 % 1002,2 hPa 0,0 l/m 0,0 km/h (0 Bft) SO 135 10,1 C 15,5 C
04.05.2012 22:21 15,5 C 70 % 1002,0 hPa 0,0 l/m 0,0 km/h (0 Bft) SO 135 10,1 C 15,5 C
04.05.2012 22:26 15,5 C 70 % 1001,9 hPa 0,0 l/m 0,0 km/h (0 Bft) SO 135 10,1 C 15,5 C
04.05.2012 22:31 15,5 C 70 % 1001,9 hPa 0,0 l/m 0,0 km/h (0 Bft) S-SO 157 10,1 C 15,5 C
04.05.2012 22:36 15,5 C 70 % 1002,0 hPa 0,0 l/m 1,1 km/h (1 Bft) S-SO 157 10,1 C 15,5 C
04.05.2012 22:41 15,5 C 70 % 1002,1 hPa 0,0 l/m 2,9 km/h (1 Bft) N 360 10,1 C 15,5 C
04.05.2012 22:46 15,3 C 69 % 1002,8 hPa 0,0 l/m 11,5 km/h (2 Bft) W 270 9,6 C 15,3 C
04.05.2012 22:51 14,9 C 72 % 1002,8 hPa 0,5 l/m 7,9 km/h (2 Bft) W-NW 292 9,9 C 14,9 C
04.05.2012 22:56 14,7 C 73 % 1002,7 hPa 0,0 l/m 10,4 km/h (2 Bft) W-NW 292 9,9 C 14,7 C
04.05.2012 23:01 14,4 C 74 % 1002,8 hPa 0,0 l/m 5,4 km/h (1 Bft) NW 315 9,8 C 14,4 C
04.05.2012 23:06 14,3 C 75 % 1002,6 hPa 0,0 l/m 3,6 km/h (1 Bft) NW 315 9,9 C 14,3 C
04.05.2012 23:11 14,1 C 75 % 1002,4 hPa 0,0 l/m 4,3 km/h (1 Bft) W-NW 292 9,7 C 14,1 C
04.05.2012 23:16 13,9 C 76 % 1002,5 hPa 0,0 l/m 3,6 km/h (1 Bft) NO 45 9,7 C 13,9 C
04.05.2012 23:21 13,6 C 76 % 1002,3 hPa 0,0 l/m 4,0 km/h (1 Bft) N 360 9,4 C 13,6 C
04.05.2012 23:26 13,5 C 76 % 1002,3 hPa 0,0 l/m 3,2 km/h (1 Bft) N-NW 337 9,4 C 13,5 C
04.05.2012 23:31 13,3 C 76 % 1002,4 hPa 0,0 l/m 0,0 km/h (0 Bft) NO 45 9,2 C 13,3 C
04.05.2012 23:36 13,3 C 76 % 1002,6 hPa 0,0 l/m 1,1 km/h (1 Bft) N-NW 337 9,2 C 13,3 C
04.05.2012 23:41 13,3 C 76 % 1002,7 hPa 0,0 l/m 0,0 km/h (0 Bft) N 360 9,2 C 13,3 C
04.05.2012 23:46 13,3 C 76 % 1002,8 hPa 0,0 l/m 6,5 km/h (2 Bft) NW 315 9,2 C 13,3 C
04.05.2012 23:51 13,3 C 76 % 1002,8 hPa 0,0 l/m 0,0 km/h (0 Bft) N 360 9,2 C 13,3 C
04.05.2012 23:56 13,3 C 76 % 1002,9 hPa 0,0 l/m 0,0 km/h (0 Bft) N-NO 22 9,2 C 13,3 C
_ Min-Zeit 06:26 16:36 19:01 - 01:26 - - 15:41 06:26
Minimum _ 13,2 C 42 % 1001,6 hPa - 0,0 km/h (0 Bft) - - 7,6 C 13,2 C
_ Max-Zeit 17:16 05:41 00:01 22:51 14:36 - - 00:01 17:16
Maximum _ 21,4 C 78 % 1008,2 hPa 0,5 l/m 26,3 km/h
W-SW (4 Bft)
- - 12,0 C 21,4 C
Durchschnitt _ 17,1 C 64 % 1004,9 hPa #0,5 l/m 6,6 km/h (2 Bft) W-SW - 9,8 C 17,1 C
(c) by David Heller